Messwerte Addis Abeba

Temperatur

Temperatur
°C
1575921600 23.00 23.00 14
1575925200 0.00 0.00 14
1575928800 1.00 1.00 14
1575932400 2.00 2.00 14
1575936000 3.00 3.00 14
1575939600 4.00 4.00 14
1575943200 5.00 5.00
1575946800 6.00 6.00 14
1575950400 7.00 7.00 14
1575954000 8.00 8.00 15
1575957600 9.00 9.00 14
1575961200 10.00 10.00 17
1575964800 11.00 11.00 18
1575968400 12.00 12.00 18
1575972000 13.00 13.00 19
1575975600 14.00 14.00 20
1575979200 15.00 15.00
1575982800 16.00 16.00 20
1575986400 17.00 17.00 20
1575990000 18.00 18.00 18
1575993600 19.00 19.00 17
1575997200 20.00 20.00 16
1576000800 21.00 21.00 15
1576004400 22.00 22.00 15

Aktuellste Messwerte

Wettercharakter
Wetter: meist klar
Temperatur
15 °C
Feuchtigkeit
75 %
Wind
15 km/hWindrichtung: Ost
Luftdruck
1027 hPa
Messzeit: 10. Dezember 2019, 22.00Datenquelle: METAR

Wind

Windrichtung Böen Mittelwind
° km/h km/h
1575921600 23.00 22.00 - 23.00 70° 15
1575925200 0.00 23.00 - 0.00 80° 10
1575928800 1.00 0.00 - 1.00 100° 5
1575932400 2.00 1.00 - 2.00 90° 10
1575936000 3.00 2.00 - 3.00 40° 5
1575939600 4.00 3.00 - 4.00 100° 5
1575943200 5.00 4.00 - 5.00
1575946800 6.00 5.00 - 6.00 80° 10
1575950400 7.00 6.00 - 7.00 90° 5
1575954000 8.00 7.00 - 8.00 70° 15
1575957600 9.00 8.00 - 9.00 110° 10
1575961200 10.00 9.00 - 10.00 80° 20
1575964800 11.00 10.00 - 11.00 100° 20
1575968400 12.00 11.00 - 12.00 90° 20
1575972000 13.00 12.00 - 13.00 90° 20
1575975600 14.00 13.00 - 14.00 80° 25
1575979200 15.00 14.00 - 15.00
1575982800 16.00 15.00 - 16.00 80° 20
1575986400 17.00 16.00 - 17.00 90° 20
1575990000 18.00 17.00 - 18.00 80° 20
1575993600 19.00 18.00 - 19.00 70° 20
1575997200 20.00 19.00 - 20.00 70° 15
1576000800 21.00 20.00 - 21.00 80° 15
1576004400 22.00 21.00 - 22.00 70° 15

Ihre Wetterstation

Fehlt Ihre Wetterstation auf unserem Portal?

Schreiben Sie an network@meteonews.ch